createdAt,value
2022-10-08T00:01:24.529Z,9.23
2022-10-08T00:03:53.654Z,8.65
2022-10-08T00:06:23.056Z,10.25
2022-10-08T00:08:53.654Z,8.82
2022-10-08T00:11:27.662Z,8.95
2022-10-08T00:13:55.986Z,8.57
2022-10-08T00:16:27.852Z,7.90
2022-10-08T00:18:59.108Z,11.68
2022-10-08T00:21:30.743Z,9.52
2022-10-08T00:24:01.081Z,9.70
2022-10-08T00:26:31.279Z,8.90
2022-10-08T00:29:02.218Z,10.27
2022-10-08T00:31:32.428Z,7.85
2022-10-08T00:34:05.930Z,10.75
2022-10-08T00:36:35.762Z,7.45
2022-10-08T00:39:11.263Z,7.72
2022-10-08T00:41:39.685Z,8.63
2022-10-08T00:44:45.141Z,7.63
2022-10-08T00:47:19.328Z,8.48
2022-10-08T00:49:49.394Z,7.47
2022-10-08T00:52:18.743Z,7.25
2022-10-08T00:54:50.225Z,8.00
2022-10-08T00:57:19.687Z,14.85
2022-10-08T00:59:47.497Z,8.98
2022-10-08T01:02:15.335Z,8.10
2022-10-08T01:04:44.424Z,8.40
2022-10-08T01:07:35.692Z,7.72
2022-10-08T01:10:31.124Z,7.20
2022-10-08T01:13:11.350Z,8.27
2022-10-08T01:16:02.435Z,8.60
2022-10-08T01:18:40.171Z,9.10
2022-10-08T01:21:43.470Z,7.00
2022-10-08T01:24:13.727Z,8.07
2022-10-08T01:27:06.748Z,7.30
2022-10-08T01:29:45.492Z,7.32
2022-10-08T01:32:27.120Z,9.45
2022-10-08T01:35:01.141Z,8.40
2022-10-08T01:37:36.713Z,8.05
2022-10-08T01:40:12.109Z,8.60
2022-10-08T01:42:41.829Z,8.15
2022-10-08T01:45:15.455Z,7.35
2022-10-08T01:50:20.276Z,7.88
2022-10-08T01:52:55.135Z,8.25
2022-10-08T01:55:35.370Z,7.95
2022-10-08T01:58:16.100Z,7.20
2022-10-08T02:00:45.723Z,7.18
2022-10-08T02:03:13.838Z,6.35
2022-10-08T02:05:48.299Z,6.82
2022-10-08T02:08:16.162Z,7.15
2022-10-08T02:10:44.047Z,7.57
2022-10-08T02:13:12.281Z,7.93
2022-10-08T02:15:48.689Z,7.85
2022-10-08T02:18:25.104Z,7.03
2022-10-08T02:21:10.591Z,7.15
2022-10-08T02:23:43.336Z,8.05
2022-10-08T02:26:16.736Z,7.90
2022-10-08T02:28:58.050Z,7.30
2022-10-08T02:31:41.673Z,7.22
2022-10-08T02:34:31.882Z,7.43
2022-10-08T02:37:11.213Z,7.28
2022-10-08T02:39:44.043Z,7.88
2022-10-08T02:42:16.180Z,7.70
2022-10-08T02:44:45.663Z,7.10
2022-10-08T02:47:17.491Z,6.72
2022-10-08T02:49:52.660Z,7.80
2022-10-08T02:52:23.086Z,5.75
2022-10-08T02:54:54.351Z,8.13
2022-10-08T02:57:43.511Z,7.25
2022-10-08T03:00:11.958Z,8.80
2022-10-08T03:02:51.604Z,8.20
2022-10-08T03:05:20.213Z,9.32
2022-10-08T03:07:51.148Z,8.20
2022-10-08T03:10:20.175Z,7.75
2022-10-08T03:12:48.458Z,7.05
2022-10-08T03:15:16.679Z,8.38
2022-10-08T03:17:47.103Z,8.35
2022-10-08T03:20:15.453Z,8.73
2022-10-08T03:22:43.387Z,8.52
2022-10-08T03:25:11.573Z,8.68
2022-10-08T03:27:39.184Z,7.63
2022-10-08T03:30:07.294Z,8.75
2022-10-08T03:32:35.222Z,8.07
2022-10-08T03:35:02.774Z,8.00
2022-10-08T03:37:31.366Z,9.18
2022-10-08T03:39:59.288Z,8.73
2022-10-08T03:42:26.865Z,9.85
2022-10-08T03:44:55.367Z,9.82
2022-10-08T03:47:23.132Z,10.55
2022-10-08T03:49:50.652Z,10.20
2022-10-08T03:52:18.187Z,7.40
2022-10-08T03:54:45.764Z,8.27
2022-10-08T03:57:13.665Z,9.23
2022-10-08T03:59:41.164Z,7.25
2022-10-08T04:02:09.369Z,8.48
2022-10-08T04:04:36.983Z,7.65
2022-10-08T04:07:04.500Z,9.98
2022-10-08T04:09:32.125Z,8.68
2022-10-08T04:11:59.878Z,11.05
2022-10-08T04:14:27.890Z,8.45
2022-10-08T04:16:55.903Z,9.15
2022-10-08T04:19:23.426Z,7.63
2022-10-08T04:21:51.414Z,7.85
2022-10-08T04:24:18.955Z,8.80
2022-10-08T04:26:46.917Z,8.88
2022-10-08T04:29:14.733Z,8.30
2022-10-08T04:31:42.552Z,7.82
2022-10-08T04:34:11.641Z,8.43
2022-10-08T04:36:39.499Z,9.18
2022-10-08T04:39:07.108Z,9.55
2022-10-08T04:41:34.863Z,8.27
2022-10-08T04:44:02.954Z,9.05
2022-10-08T04:46:30.659Z,9.73
2022-10-08T04:48:58.388Z,9.15
2022-10-08T04:51:27.420Z,8.80
2022-10-08T04:53:56.311Z,9.07
2022-10-08T04:56:27.129Z,9.85
2022-10-08T04:58:55.496Z,9.07
2022-10-08T05:01:25.150Z,9.10
2022-10-08T05:03:56.238Z,8.90
2022-10-08T05:06:28.169Z,9.77
2022-10-08T05:08:57.464Z,9.45
2022-10-08T05:11:26.928Z,9.13
2022-10-08T05:13:56.269Z,10.77
2022-10-08T05:16:25.563Z,9.60
2022-10-08T05:18:53.724Z,10.52
2022-10-08T05:21:24.493Z,10.23
2022-10-08T05:23:59.325Z,12.10
2022-10-08T05:26:56.446Z,10.88
2022-10-08T05:29:18.495Z,9.13
2022-10-08T05:31:46.049Z,10.98
2022-10-08T05:34:14.934Z,9.88
2022-10-08T05:36:42.905Z,10.55
2022-10-08T05:39:11.051Z,11.25
2022-10-08T05:41:38.933Z,9.82
2022-10-08T05:44:08.262Z,10.18
2022-10-08T05:46:37.183Z,10.10
2022-10-08T05:49:06.976Z,11.23
2022-10-08T05:51:35.288Z,10.77
2022-10-08T05:54:02.872Z,10.10
2022-10-08T05:56:31.764Z,9.77
2022-10-08T05:58:59.476Z,9.90
2022-10-08T06:01:31.303Z,9.32
2022-10-08T06:04:05.693Z,10.10
2022-10-08T06:06:36.842Z,11.07
2022-10-08T06:09:05.473Z,11.57
2022-10-08T06:11:34.762Z,10.98
2022-10-08T06:14:04.981Z,10.75
2022-10-08T06:16:33.870Z,11.07
2022-10-08T06:19:04.957Z,10.80
2022-10-08T06:21:33.731Z,10.25
2022-10-08T06:24:04.133Z,9.20
2022-10-08T06:26:36.653Z,11.32
2022-10-08T06:29:11.227Z,10.32
2022-10-08T06:31:39.110Z,10.85
2022-10-08T06:34:06.802Z,10.77
2022-10-08T06:36:37.433Z,10.38
2022-10-08T06:39:08.157Z,9.93
2022-10-08T06:41:35.949Z,11.25
2022-10-08T06:44:06.478Z,10.25
2022-10-08T06:46:35.171Z,11.10
2022-10-08T06:49:03.599Z,10.43
2022-10-08T06:51:31.227Z,10.82
2022-10-08T06:54:05.908Z,11.50
2022-10-08T06:56:36.207Z,9.68
2022-10-08T06:59:05.345Z,9.77
2022-10-08T07:01:34.801Z,10.02
2022-10-08T07:04:04.139Z,10.43
2022-10-08T07:06:31.890Z,10.93
2022-10-08T07:09:01.358Z,11.18
2022-10-08T07:11:31.401Z,12.07
2022-10-08T07:13:59.322Z,11.55
2022-10-08T07:16:28.813Z,12.55
2022-10-08T07:18:58.793Z,10.75
2022-10-08T07:21:28.174Z,8.68
2022-10-08T07:23:56.260Z,8.48
2022-10-08T07:26:26.948Z,7.68
2022-10-08T07:29:03.676Z,8.23
2022-10-08T07:31:34.283Z,8.55
2022-10-08T07:34:06.093Z,9.90
2022-10-08T07:36:34.453Z,9.02
2022-10-08T07:39:08.196Z,9.80
2022-10-08T07:44:04.244Z,9.65
2022-10-08T07:46:34.153Z,9.05
2022-10-08T07:49:02.922Z,9.25
2022-10-08T07:51:32.869Z,9.52
2022-10-08T07:54:02.907Z,9.70
2022-10-08T07:56:31.852Z,9.95
2022-10-08T07:59:00.695Z,9.00
2022-10-08T08:01:30.313Z,8.32
2022-10-08T08:04:02.107Z,9.23
2022-10-08T08:06:32.035Z,9.95
2022-10-08T08:09:01.093Z,9.48
2022-10-08T08:11:29.836Z,9.00
2022-10-08T08:13:57.342Z,8.48
2022-10-08T08:16:27.431Z,9.05
2022-10-08T08:19:08.107Z,8.90
2022-10-08T08:21:40.581Z,9.30
2022-10-08T08:24:10.991Z,8.98
2022-10-08T08:26:41.377Z,10.45
2022-10-08T08:29:13.194Z,8.70
2022-10-08T08:31:43.549Z,9.13
2022-10-08T08:34:14.096Z,7.65
2022-10-08T08:36:45.009Z,8.77
2022-10-08T08:39:19.467Z,8.25
2022-10-08T08:42:01.387Z,7.57
2022-10-08T08:44:36.978Z,7.78
2022-10-08T08:47:14.180Z,8.10
2022-10-08T08:49:49.534Z,7.25
2022-10-08T08:52:21.501Z,8.68
2022-10-08T08:54:50.393Z,7.00
2022-10-08T08:57:44.294Z,8.05
2022-10-08T09:03:00.618Z,7.72
2022-10-08T09:05:33.545Z,6.35
2022-10-08T09:08:24.515Z,6.53
2022-10-08T09:11:03.987Z,8.00
2022-10-08T09:13:42.707Z,6.43
2022-10-08T09:16:13.575Z,6.00
2022-10-08T09:18:47.607Z,6.53
2022-10-08T09:21:15.894Z,6.15
2022-10-08T09:23:46.314Z,8.13
2022-10-08T09:26:15.429Z,7.10
2022-10-08T09:28:44.997Z,6.70
2022-10-08T09:31:31.411Z,6.88
2022-10-08T09:34:11.180Z,6.78
2022-10-08T09:36:45.873Z,6.78
2022-10-08T09:39:23.828Z,7.85
2022-10-08T09:42:10.146Z,6.78
2022-10-08T09:44:47.852Z,8.10
2022-10-08T09:47:21.637Z,6.68
2022-10-08T09:50:16.003Z,7.03
2022-10-08T09:52:43.851Z,6.80
2022-10-08T09:55:27.994Z,6.00
2022-10-08T09:58:03.459Z,6.78
2022-10-08T10:00:39.680Z,7.13
2022-10-08T10:03:17.226Z,7.38
2022-10-08T10:05:51.523Z,7.05
2022-10-08T10:08:40.845Z,7.32
2022-10-08T10:11:15.089Z,7.78
2022-10-08T10:13:45.012Z,7.63
2022-10-08T10:16:25.548Z,6.57
2022-10-08T10:19:04.839Z,7.68
2022-10-08T10:21:49.155Z,7.97
2022-10-08T10:24:34.075Z,7.38
2022-10-08T10:27:10.248Z,7.38
2022-10-08T10:29:49.460Z,7.60
2022-10-08T10:32:33.827Z,8.68
2022-10-08T10:35:11.415Z,7.38
2022-10-08T10:37:50.900Z,9.60
2022-10-08T10:40:30.896Z,10.15
2022-10-08T10:43:23.162Z,8.75
2022-10-08T10:46:08.880Z,9.93
2022-10-08T10:48:36.956Z,7.88
2022-10-08T10:51:24.706Z,10.52
2022-10-08T10:54:22.629Z,10.45
2022-10-08T10:57:11.959Z,9.75
2022-10-08T10:59:45.235Z,12.45
2022-10-08T11:02:15.648Z,13.25
2022-10-08T11:05:05.813Z,12.50
2022-10-08T11:07:55.652Z,13.75
2022-10-08T11:10:33.337Z,13.68
2022-10-08T11:13:20.069Z,13.07
2022-10-08T11:16:34.153Z,13.98
2022-10-08T11:19:06.005Z,13.73
2022-10-08T11:21:52.722Z,14.77
2022-10-08T11:24:53.054Z,14.60
2022-10-08T11:27:48.672Z,13.82
2022-10-08T11:30:21.491Z,15.13
2022-10-08T11:32:55.392Z,12.82
2022-10-08T11:35:38.083Z,13.70
2022-10-08T11:38:17.453Z,13.95
2022-10-08T11:40:52.197Z,20.95
2022-10-08T11:43:33.707Z,15.10
2022-10-08T11:46:28.540Z,13.88
2022-10-08T11:49:11.816Z,17.10
2022-10-08T11:51:44.706Z,16.90
2022-10-08T11:54:31.102Z,17.27
2022-10-08T11:57:20.970Z,15.20
2022-10-08T12:00:21.124Z,17.35
2022-10-08T12:02:53.492Z,15.95
2022-10-08T12:05:24.930Z,15.60
2022-10-08T12:07:58.898Z,14.82
2022-10-08T12:10:32.615Z,15.63
2022-10-08T12:13:28.020Z,16.23
2022-10-08T12:15:56.040Z,15.30
2022-10-08T12:18:26.457Z,14.88
2022-10-08T12:21:15.913Z,16.05
2022-10-08T12:23:45.055Z,15.18
2022-10-08T12:26:14.788Z,14.63
2022-10-08T12:28:42.696Z,15.90
2022-10-08T12:31:16.356Z,14.80
2022-10-08T12:33:44.433Z,15.50
2022-10-08T12:36:24.512Z,14.90
2022-10-08T12:39:17.971Z,13.95
2022-10-08T12:41:48.470Z,14.57
2022-10-08T12:44:46.054Z,15.50
2022-10-08T12:47:25.455Z,12.82
2022-10-08T12:50:02.381Z,12.93
2022-10-08T12:52:35.492Z,12.27
2022-10-08T12:57:39.782Z,13.30
2022-10-08T13:00:31.167Z,9.65
2022-10-08T13:03:02.881Z,13.35
2022-10-08T13:05:34.843Z,15.73
2022-10-08T13:08:27.738Z,13.38
2022-10-08T13:10:57.102Z,9.23
2022-10-08T13:13:40.041Z,10.07
2022-10-08T13:16:13.860Z,10.90
2022-10-08T13:18:45.472Z,12.00
2022-10-08T13:21:31.417Z,12.30
2022-10-08T13:24:04.186Z,10.90
2022-10-08T13:26:52.359Z,11.35
2022-10-08T13:29:23.216Z,10.60
2022-10-08T13:32:15.764Z,10.32
2022-10-08T13:34:48.649Z,11.48
2022-10-08T13:37:23.015Z,9.93
2022-10-08T13:39:58.638Z,8.80
2022-10-08T13:42:29.988Z,11.90
2022-10-08T13:44:59.963Z,11.80
2022-10-08T13:47:29.161Z,11.57
2022-10-08T13:50:01.785Z,11.15
2022-10-08T13:52:33.045Z,10.45
2022-10-08T13:55:04.625Z,11.00
2022-10-08T13:57:32.989Z,11.02
2022-10-08T14:00:00.507Z,10.30
2022-10-08T14:02:28.238Z,9.25
2022-10-08T14:04:56.339Z,11.75
2022-10-08T14:07:29.017Z,10.93
2022-10-08T14:09:59.999Z,10.52
2022-10-08T14:12:32.635Z,11.20
2022-10-08T14:15:01.292Z,11.45
2022-10-08T14:17:29.641Z,9.82
2022-10-08T14:19:57.642Z,6.65
2022-10-08T14:22:25.245Z,9.25
2022-10-08T14:24:53.792Z,10.35
2022-10-08T14:27:21.360Z,11.18
2022-10-08T14:29:48.862Z,8.55
2022-10-08T14:32:16.346Z,9.77
2022-10-08T14:34:44.548Z,9.90
2022-10-08T14:37:12.612Z,9.98
2022-10-08T14:39:40.642Z,10.57
2022-10-08T14:42:08.179Z,10.02
2022-10-08T14:44:36.089Z,11.85
2022-10-08T14:47:03.868Z,9.38
2022-10-08T14:49:31.871Z,9.40
2022-10-08T14:51:59.777Z,7.22
2022-10-08T14:54:28.168Z,8.70
2022-10-08T14:56:56.452Z,10.13
2022-10-08T14:59:24.045Z,9.68
2022-10-08T15:01:51.921Z,8.73
2022-10-08T15:04:19.532Z,8.48
2022-10-08T15:06:47.535Z,8.85
2022-10-08T15:09:17.077Z,8.23
2022-10-08T15:11:44.755Z,9.48
2022-10-08T15:14:12.306Z,8.70
2022-10-08T15:16:40.044Z,10.57
2022-10-08T15:19:08.329Z,8.55
2022-10-08T15:21:36.927Z,8.05
2022-10-08T15:24:05.067Z,8.20
2022-10-08T15:26:33.104Z,9.07
2022-10-08T15:29:01.268Z,9.27
2022-10-08T15:31:29.718Z,9.38
2022-10-08T15:33:59.656Z,10.00
2022-10-08T15:36:33.766Z,7.30
2022-10-08T15:39:08.695Z,9.07
2022-10-08T15:41:37.981Z,9.50
2022-10-08T15:44:23.802Z,12.15
2022-10-08T15:46:59.378Z,31.80
2022-10-08T15:49:32.367Z,28.58
2022-10-08T15:52:01.134Z,14.90
2022-10-08T15:54:28.774Z,26.63
2022-10-08T15:56:56.830Z,9.23
2022-10-08T15:59:24.329Z,7.55
2022-10-08T16:01:51.820Z,9.18
2022-10-08T16:04:19.968Z,9.05
2022-10-08T16:06:48.187Z,16.83
2022-10-08T16:09:18.451Z,22.55
2022-10-08T16:11:47.341Z,41.05
2022-10-08T16:14:18.789Z,22.23
2022-10-08T16:16:47.591Z,28.45
2022-10-08T16:19:18.183Z,24.27
2022-10-08T16:21:48.812Z,23.05
2022-10-08T16:24:16.704Z,18.88
2022-10-08T16:26:45.533Z,15.43
2022-10-08T16:29:14.810Z,16.65
2022-10-08T16:31:43.783Z,24.15
2022-10-08T16:34:14.806Z,12.10
2022-10-08T16:36:43.238Z,14.57
2022-10-08T16:39:12.816Z,9.93
2022-10-08T16:41:40.896Z,11.43
2022-10-08T16:44:13.936Z,11.10
2022-10-08T16:46:44.368Z,10.27
2022-10-08T16:49:24.315Z,10.00
2022-10-08T16:52:01.078Z,11.18
2022-10-08T16:54:29.355Z,10.75
2022-10-08T16:56:57.994Z,11.57
2022-10-08T16:59:28.501Z,12.98
2022-10-08T17:01:58.092Z,14.77
2022-10-08T17:04:28.786Z,12.77
2022-10-08T17:06:56.807Z,12.77
2022-10-08T17:09:24.773Z,16.27
2022-10-08T17:11:52.625Z,13.15
2022-10-08T17:14:20.466Z,13.38
2022-10-08T17:16:49.458Z,14.95
2022-10-08T17:19:18.141Z,15.02
2022-10-08T17:21:46.360Z,16.75
2022-10-08T17:24:13.926Z,16.00
2022-10-08T17:26:44.567Z,17.98
2022-10-08T17:29:12.949Z,16.45
2022-10-08T17:31:41.556Z,18.95
2022-10-08T17:34:10.086Z,19.35
2022-10-08T17:36:40.966Z,18.85
2022-10-08T17:39:13.161Z,17.35
2022-10-08T17:41:42.258Z,18.05
2022-10-08T17:44:11.304Z,18.48
2022-10-08T17:46:46.164Z,17.88
2022-10-08T17:49:16.141Z,15.27
2022-10-08T17:51:44.833Z,14.98
2022-10-08T17:54:16.384Z,15.55
2022-10-08T17:56:44.379Z,16.63
2022-10-08T17:59:17.312Z,16.63
2022-10-08T18:01:45.850Z,15.25
2022-10-08T18:04:16.091Z,16.02
2022-10-08T18:06:46.425Z,16.17
2022-10-08T18:09:20.252Z,16.67
2022-10-08T18:11:52.009Z,15.80
2022-10-08T18:14:22.879Z,15.45
2022-10-08T18:16:51.580Z,15.70
2022-10-08T18:19:19.692Z,14.50
2022-10-08T18:21:47.437Z,16.55
2022-10-08T18:24:16.988Z,15.07
2022-10-08T18:26:45.092Z,15.07
2022-10-08T18:29:14.324Z,14.20
2022-10-08T18:31:43.563Z,15.55
2022-10-08T18:34:16.593Z,15.75
2022-10-08T18:36:45.008Z,14.38
2022-10-08T18:39:15.836Z,15.48
2022-10-08T18:41:46.915Z,14.80
2022-10-08T18:44:17.616Z,14.65
2022-10-08T18:46:46.032Z,14.88
2022-10-08T18:49:17.113Z,15.00
2022-10-08T18:51:45.648Z,14.70
2022-10-08T18:54:13.282Z,15.25
2022-10-08T18:56:41.855Z,15.82
2022-10-08T18:59:13.785Z,16.73
2022-10-08T19:01:44.125Z,16.85
2022-10-08T19:04:15.419Z,14.93
2022-10-08T19:06:45.224Z,15.98
2022-10-08T19:09:13.788Z,16.10
2022-10-08T19:11:45.480Z,15.52
2022-10-08T19:14:16.465Z,15.82
2022-10-08T19:16:44.689Z,16.95
2022-10-08T19:19:27.466Z,15.95
2022-10-08T19:21:56.185Z,15.82
2022-10-08T19:24:25.661Z,15.93
2022-10-08T19:26:55.387Z,16.85
2022-10-08T19:29:29.324Z,16.33
2022-10-08T19:31:57.544Z,16.63
2022-10-08T19:34:27.066Z,17.92
2022-10-08T19:36:55.953Z,16.08
2022-10-08T19:39:26.838Z,16.08
2022-10-08T19:41:54.667Z,16.10
2022-10-08T19:44:22.350Z,16.92
2022-10-08T19:46:50.200Z,18.55
2022-10-08T19:49:18.669Z,19.08
2022-10-08T19:51:46.940Z,18.77
2022-10-08T19:54:16.467Z,17.42
2022-10-08T19:56:44.214Z,18.05
2022-10-08T19:59:13.179Z,17.13
2022-10-08T20:01:42.804Z,16.58
2022-10-08T20:04:11.959Z,19.48
2022-10-08T20:06:41.751Z,19.50
2022-10-08T20:09:12.897Z,19.63
2022-10-08T20:11:42.674Z,17.10
2022-10-08T20:14:12.085Z,17.60
2022-10-08T20:16:41.353Z,19.08
2022-10-08T20:19:20.728Z,19.40
2022-10-08T20:21:50.012Z,19.15
2022-10-08T20:24:18.776Z,17.95
2022-10-08T20:26:48.873Z,17.45
2022-10-08T20:29:20.413Z,17.35
2022-10-08T20:31:50.824Z,16.85
2022-10-08T20:34:20.867Z,18.85
2022-10-08T20:36:49.176Z,19.70
2022-10-08T20:39:18.400Z,18.58
2022-10-08T20:41:46.810Z,20.52
2022-10-08T20:44:15.492Z,17.35
2022-10-08T20:46:43.727Z,17.98
2022-10-08T20:49:13.527Z,17.35
2022-10-08T20:51:43.786Z,15.63
2022-10-08T20:54:14.323Z,16.80
2022-10-08T20:56:42.877Z,19.17
2022-10-08T20:59:15.487Z,18.83
2022-10-08T21:01:42.991Z,18.08
2022-10-08T21:04:11.148Z,18.70
2022-10-08T21:06:41.696Z,19.25
2022-10-08T21:09:10.164Z,18.90
2022-10-08T21:11:39.059Z,19.27
2022-10-08T21:14:08.416Z,21.38
2022-10-08T21:16:39.048Z,16.88
2022-10-08T21:19:11.285Z,16.55
2022-10-08T21:21:39.468Z,15.93
2022-10-08T21:24:07.922Z,18.75
2022-10-08T21:26:39.029Z,17.55
2022-10-08T21:29:09.109Z,18.90
2022-10-08T21:31:38.916Z,18.25
2022-10-08T21:34:06.979Z,18.77
2022-10-08T21:36:38.736Z,17.65
2022-10-08T21:39:08.077Z,18.50
2022-10-08T21:41:37.221Z,19.42
2022-10-08T21:44:07.616Z,18.75
2022-10-08T21:46:38.512Z,18.15
2022-10-08T21:49:10.525Z,18.08
2022-10-08T21:51:38.065Z,17.27
2022-10-08T21:54:06.772Z,20.60
2022-10-08T21:56:37.532Z,19.35
2022-10-08T21:59:08.027Z,19.83
2022-10-08T22:01:35.493Z,21.75
2022-10-08T22:04:09.392Z,20.27
2022-10-08T22:06:40.566Z,19.40
2022-10-08T22:09:11.659Z,19.00
2022-10-08T22:11:39.869Z,19.10
2022-10-08T22:14:07.916Z,21.60
2022-10-08T22:16:35.899Z,18.60
2022-10-08T22:19:04.457Z,18.88
2022-10-08T22:21:32.902Z,22.83
2022-10-08T22:24:01.046Z,22.55
2022-10-08T22:26:34.353Z,18.55
2022-10-08T22:29:02.235Z,19.35
2022-10-08T22:31:30.757Z,18.83
2022-10-08T22:33:58.922Z,21.27
2022-10-08T22:36:29.229Z,20.55
2022-10-08T22:38:58.246Z,18.17
2022-10-08T22:41:29.582Z,17.70
2022-10-08T22:43:58.249Z,19.55
2022-10-08T22:46:28.781Z,17.63
2022-10-08T22:49:01.178Z,21.02
2022-10-08T22:51:29.482Z,19.30
2022-10-08T22:53:57.771Z,19.80
2022-10-08T22:56:28.993Z,19.90
2022-10-08T22:58:58.837Z,20.75
2022-10-08T23:01:29.065Z,21.10
2022-10-08T23:03:56.924Z,19.25
2022-10-08T23:06:30.435Z,19.23
2022-10-08T23:09:01.130Z,19.33
2022-10-08T23:11:31.646Z,19.60
2022-10-08T23:14:00.429Z,19.90
2022-10-08T23:16:30.110Z,19.55
2022-10-08T23:19:00.783Z,19.92
2022-10-08T23:21:29.574Z,19.90
2022-10-08T23:23:57.677Z,20.25
2022-10-08T23:26:26.640Z,18.20
2022-10-08T23:28:56.563Z,19.73
2022-10-08T23:31:27.301Z,18.75
2022-10-08T23:33:55.892Z,18.00
2022-10-08T23:36:31.443Z,18.67
2022-10-08T23:38:59.495Z,18.70
2022-10-08T23:41:27.816Z,20.27
2022-10-08T23:43:58.660Z,18.67
2022-10-08T23:46:29.345Z,18.05
2022-10-08T23:48:58.600Z,19.65
2022-10-08T23:51:32.205Z,17.77
2022-10-08T23:56:29.580Z,19.45
2022-10-08T23:58:58.292Z,17.77
